createdAt,value
2018-04-17T00:00:02.837Z,98392.97
2018-04-17T00:01:07.527Z,98395.45
2018-04-17T00:02:12.219Z,98391.84
2018-04-17T00:03:17.751Z,98392.73
2018-04-17T00:04:22.441Z,98394.09
2018-04-17T00:05:27.072Z,98389.92
2018-04-17T00:06:32.096Z,98394.19
2018-04-17T00:07:36.850Z,98394.99
2018-04-17T00:08:41.397Z,98390.35
2018-04-17T00:09:45.986Z,98391.02
2018-04-17T00:10:50.536Z,98393.22
2018-04-17T00:11:55.109Z,98397.23
2018-04-17T00:12:59.990Z,98395.29
2018-04-17T00:14:04.506Z,98400.56
2018-04-17T00:15:09.048Z,98393.86
2018-04-17T00:16:13.632Z,98390.88
2018-04-17T00:17:18.190Z,98389.53
2018-04-17T00:18:22.843Z,98395.58
2018-04-17T00:19:27.393Z,98403.81
2018-04-17T00:20:35.081Z,98394.83
2018-04-17T00:21:39.588Z,98398.80
2018-04-17T00:22:44.208Z,98397.55
2018-04-17T00:23:48.784Z,98404.28
2018-04-17T00:24:53.470Z,98400.84
2018-04-17T00:25:58.388Z,98406.60
2018-04-17T00:27:02.963Z,98402.34
2018-04-17T00:28:07.535Z,98405.68
2018-04-17T00:29:12.058Z,98406.99
2018-04-17T00:30:16.592Z,98405.39
2018-04-17T00:31:21.184Z,98408.08
2018-04-17T00:32:26.110Z,98410.13
2018-04-17T00:33:30.716Z,98406.46
2018-04-17T00:34:35.316Z,98412.60
2018-04-17T00:35:39.865Z,98411.75
2018-04-17T00:36:44.383Z,98406.67
2018-04-17T00:37:48.932Z,98409.73
2018-04-17T00:38:53.663Z,98406.55
2018-04-17T00:39:58.059Z,98412.72
2018-04-17T00:41:02.489Z,98412.61
2018-04-17T00:42:06.898Z,98419.94
2018-04-17T00:43:11.337Z,98416.77
2018-04-17T00:44:15.901Z,98419.45
2018-04-17T00:45:20.741Z,98419.33
2018-04-17T00:46:25.357Z,98416.71
2018-04-17T00:47:29.928Z,98420.49
2018-04-17T00:48:34.468Z,98418.27
2018-04-17T00:49:39.017Z,98426.58
2018-04-17T00:50:43.628Z,98416.41
2018-04-17T00:51:48.554Z,98425.05
2018-04-17T00:52:53.210Z,98416.21
2018-04-17T00:53:57.979Z,98424.16
2018-04-17T00:55:02.552Z,98420.30
2018-04-17T00:56:07.166Z,98423.27
2018-04-17T00:57:11.778Z,98424.12
2018-04-17T00:58:16.522Z,98428.00
2018-04-17T00:59:21.059Z,98421.70
2018-04-17T01:00:25.525Z,98423.45
2018-04-17T01:01:30.021Z,98423.17
2018-04-17T01:02:34.740Z,98423.86
2018-04-17T01:03:39.370Z,98424.25
2018-04-17T01:04:44.620Z,98420.70
2018-04-17T01:05:49.578Z,98423.31
2018-04-17T01:06:54.082Z,98429.81
2018-04-17T01:07:58.615Z,98424.95
2018-04-17T01:09:03.413Z,98428.77
2018-04-17T01:10:07.935Z,98435.61
2018-04-17T01:11:12.738Z,98429.70
2018-04-17T01:12:17.279Z,98429.70
2018-04-17T01:13:21.713Z,98427.16
2018-04-17T01:14:26.170Z,98426.29
2018-04-17T01:15:30.621Z,98426.20
2018-04-17T01:16:35.041Z,98433.82
2018-04-17T01:17:39.776Z,98428.93
2018-04-17T01:18:44.338Z,98424.92
2018-04-17T01:19:48.862Z,98427.33
2018-04-17T01:20:53.392Z,98431.69
2018-04-17T01:21:57.912Z,98426.09
2018-04-17T01:23:02.532Z,98427.48
2018-04-17T01:24:07.399Z,98426.94
2018-04-17T01:25:12.017Z,98432.63
2018-04-17T01:26:16.657Z,98433.20
2018-04-17T01:27:21.270Z,98429.64
2018-04-17T01:28:26.781Z,98425.23
2018-04-17T01:29:31.399Z,98427.36
2018-04-17T01:30:36.295Z,98425.56
2018-04-17T01:31:40.891Z,98434.18
2018-04-17T01:32:45.489Z,98427.73
2018-04-17T01:33:50.138Z,98431.33
2018-04-17T01:34:54.743Z,98434.09
2018-04-17T01:35:59.376Z,98438.36
2018-04-17T01:37:04.230Z,98438.95
2018-04-17T01:38:08.837Z,98438.80
2018-04-17T01:39:13.443Z,98442.89
2018-04-17T01:40:18.035Z,98444.20
2018-04-17T01:41:22.694Z,98443.39
2018-04-17T01:42:27.341Z,98447.98
2018-04-17T01:43:32.243Z,98447.84
2018-04-17T01:44:36.868Z,98451.00
2018-04-17T01:45:41.483Z,98447.38
2018-04-17T01:46:46.078Z,98447.97
2018-04-17T01:47:50.717Z,98452.46
2018-04-17T01:48:55.307Z,98456.16
2018-04-17T01:50:00.211Z,98463.74
2018-04-17T01:51:04.830Z,98462.55
2018-04-17T01:52:09.411Z,98461.13
2018-04-17T01:53:14.075Z,98459.70
2018-04-17T01:54:18.672Z,98458.69
2018-04-17T01:55:23.281Z,98461.87
2018-04-17T01:56:28.246Z,98452.87
2018-04-17T01:57:33.007Z,98454.83
2018-04-17T01:58:37.674Z,98453.28
2018-04-17T01:59:42.331Z,98456.67
2018-04-17T02:00:47.043Z,98456.27
2018-04-17T02:01:51.730Z,98454.44
2018-04-17T02:02:57.044Z,98461.37
2018-04-17T02:04:01.698Z,98456.89
2018-04-17T02:05:06.242Z,98454.75
2018-04-17T02:06:10.695Z,98457.96
2018-04-17T02:07:15.305Z,98454.59
2018-04-17T02:08:19.863Z,98455.84
2018-04-17T02:09:24.786Z,98452.25
2018-04-17T02:10:29.370Z,98461.63
2018-04-17T02:11:33.968Z,98453.17
2018-04-17T02:12:38.575Z,98455.28
2018-04-17T02:13:43.187Z,98454.41
2018-04-17T02:14:47.762Z,98457.95
2018-04-17T02:15:52.654Z,98452.38
2018-04-17T02:16:57.230Z,98461.86
2018-04-17T02:18:01.809Z,98463.98
2018-04-17T02:19:06.483Z,98464.44
2018-04-17T02:20:11.136Z,98462.85
2018-04-17T02:21:15.734Z,98470.88
2018-04-17T02:22:21.101Z,98467.28
2018-04-17T02:23:25.786Z,98471.77
2018-04-17T02:24:30.472Z,98468.51
2018-04-17T02:25:35.186Z,98468.41
2018-04-17T02:26:39.769Z,98470.63
2018-04-17T02:27:44.443Z,98468.02
2018-04-17T02:28:49.399Z,98472.19
2018-04-17T02:29:54.139Z,98470.23
2018-04-17T02:30:58.785Z,98474.95
2018-04-17T02:32:03.512Z,98470.86
2018-04-17T02:33:08.141Z,98475.15
2018-04-17T02:34:12.731Z,98472.17
2018-04-17T02:35:17.559Z,98473.23
2018-04-17T02:36:22.219Z,98477.03
2018-04-17T02:37:27.045Z,98471.07
2018-04-17T02:38:31.695Z,98473.31
2018-04-17T02:39:36.361Z,98477.22
2018-04-17T02:40:41.171Z,98479.53
2018-04-17T02:41:45.786Z,98480.45
2018-04-17T02:42:50.405Z,98483.17
2018-04-17T02:43:55.054Z,98478.49
2018-04-17T02:44:59.623Z,98480.78
2018-04-17T02:46:04.184Z,98478.07
2018-04-17T02:47:08.833Z,98484.55
2018-04-17T02:48:13.735Z,98484.06
2018-04-17T02:49:18.281Z,98487.55
2018-04-17T02:50:22.826Z,98482.52
2018-04-17T02:51:27.391Z,98488.80
2018-04-17T02:52:31.983Z,98484.64
2018-04-17T02:53:36.564Z,98486.60
2018-04-17T02:54:41.457Z,98490.78
2018-04-17T02:55:46.035Z,98492.47
2018-04-17T02:56:50.645Z,98494.51
2018-04-17T02:57:55.277Z,98499.22
2018-04-17T02:58:59.767Z,98499.56
2018-04-17T03:00:04.315Z,98494.86
2018-04-17T03:01:09.183Z,98497.69
2018-04-17T03:02:13.793Z,98506.27
2018-04-17T03:03:18.416Z,98501.66
2018-04-17T03:04:22.981Z,98503.51
2018-04-17T03:05:27.583Z,98501.65
2018-04-17T03:06:32.142Z,98502.98
2018-04-17T03:07:37.009Z,98506.83
2018-04-17T03:08:41.473Z,98506.66
2018-04-17T03:09:45.922Z,98505.91
2018-04-17T03:10:50.339Z,98502.42
2018-04-17T03:11:54.980Z,98501.31
2018-04-17T03:12:59.440Z,98507.76
2018-04-17T03:14:04.324Z,98506.89
2018-04-17T03:15:09.000Z,98510.67
2018-04-17T03:16:13.477Z,98513.09
2018-04-17T03:17:17.977Z,98510.44
2018-04-17T03:18:22.480Z,98512.06
2018-04-17T03:19:27.141Z,98523.64
2018-04-17T03:20:32.318Z,98522.27
2018-04-17T03:21:37.763Z,98525.62
2018-04-17T03:22:42.273Z,98522.36
2018-04-17T03:23:46.621Z,98530.31
2018-04-17T03:24:51.114Z,98521.88
2018-04-17T03:25:55.654Z,98530.91
2018-04-17T03:27:00.483Z,98526.84
2018-04-17T03:28:04.888Z,98524.53
2018-04-17T03:29:09.442Z,98525.01
2018-04-17T03:30:13.951Z,98527.29
2018-04-17T03:31:18.438Z,98533.73
2018-04-17T03:32:22.957Z,98534.59
2018-04-17T03:33:28.396Z,98522.11
2018-04-17T03:34:32.995Z,98528.28
2018-04-17T03:35:37.547Z,98529.44
2018-04-17T03:36:42.179Z,98528.45
2018-04-17T03:37:46.783Z,98531.47
2018-04-17T03:38:51.343Z,98524.26
2018-04-17T03:39:56.279Z,98528.55
2018-04-17T03:41:00.897Z,98525.80
2018-04-17T03:42:05.534Z,98530.55
2018-04-17T03:43:10.118Z,98527.03
2018-04-17T03:44:14.697Z,98530.80
2018-04-17T03:45:19.290Z,98529.64
2018-04-17T03:46:23.858Z,98530.39
2018-04-17T03:47:28.380Z,98527.55
2018-04-17T03:48:33.042Z,98526.94
2018-04-17T03:49:37.591Z,98528.05
2018-04-17T03:50:42.202Z,98528.58
2018-04-17T03:51:47.112Z,98529.47
2018-04-17T03:52:51.699Z,98530.00
2018-04-17T03:53:56.210Z,98528.30
2018-04-17T03:55:00.738Z,98528.19
2018-04-17T03:56:05.329Z,98533.14
2018-04-17T03:57:09.908Z,98530.72
2018-04-17T03:58:14.873Z,98529.05
2018-04-17T03:59:19.521Z,98524.53
2018-04-17T04:00:24.211Z,98526.21
2018-04-17T04:01:28.893Z,98529.64
2018-04-17T04:02:33.538Z,98533.06
2018-04-17T04:03:38.207Z,98529.39
2018-04-17T04:04:43.173Z,98528.45
2018-04-17T04:05:47.851Z,98533.70
2018-04-17T04:06:52.530Z,98527.48
2018-04-17T04:07:57.198Z,98527.02
2018-04-17T04:09:01.832Z,98528.23
2018-04-17T04:10:06.483Z,98525.03
2018-04-17T04:11:11.505Z,98531.33
2018-04-17T04:12:16.180Z,98531.19
2018-04-17T04:13:21.101Z,98529.39
2018-04-17T04:14:25.712Z,98528.23
2018-04-17T04:15:30.458Z,98535.44
2018-04-17T04:16:39.610Z,98540.06
2018-04-17T04:19:56.455Z,98539.39
2018-04-17T04:23:09.511Z,98543.48
2018-04-17T04:25:24.443Z,98548.39
2018-04-17T04:26:29.791Z,98548.05
2018-04-17T04:27:34.572Z,98540.58
2018-04-17T04:28:39.332Z,98546.17
2018-04-17T04:29:44.423Z,98548.11
2018-04-17T04:30:49.100Z,98546.73
2018-04-17T04:31:53.832Z,98548.17
2018-04-17T04:32:58.530Z,98549.10
2018-04-17T04:34:03.391Z,98554.93
2018-04-17T04:35:08.124Z,98554.97
2018-04-17T04:36:13.366Z,98563.34
2018-04-17T04:37:18.242Z,98561.27
2018-04-17T04:38:22.928Z,98563.45
2018-04-17T04:39:27.627Z,98559.46
2018-04-17T04:40:32.288Z,98562.95
2018-04-17T04:41:36.976Z,98558.24
2018-04-17T04:42:41.993Z,98565.63
2018-04-17T04:43:46.658Z,98563.17
2018-04-17T04:44:51.341Z,98563.75
2018-04-17T04:45:56.078Z,98564.95
2018-04-17T04:47:00.644Z,98564.84
2018-04-17T04:48:05.179Z,98568.23
2018-04-17T04:49:10.224Z,98563.73
2018-04-17T04:50:14.821Z,98565.80
2018-04-17T04:51:19.393Z,98569.03
2018-04-17T04:52:24.003Z,98570.02
2018-04-17T04:53:28.779Z,98567.16
2018-04-17T04:54:33.547Z,98570.97
2018-04-17T04:55:38.369Z,98571.24
2018-04-17T04:56:42.955Z,98573.03
2018-04-17T04:57:47.474Z,98570.44
2018-04-17T04:58:52.054Z,98575.42
2018-04-17T04:59:56.788Z,98578.56
2018-04-17T05:01:01.485Z,98578.21
2018-04-17T05:02:06.328Z,98582.54
2018-04-17T05:03:10.899Z,98579.28
2018-04-17T05:04:15.488Z,98578.53
2018-04-17T05:05:20.102Z,98583.84
2018-04-17T05:06:24.791Z,98582.97
2018-04-17T05:07:29.453Z,98584.39
2018-04-17T05:08:34.436Z,98591.37
2018-04-17T05:09:39.151Z,98587.09
2018-04-17T05:10:43.835Z,98586.14
2018-04-17T05:11:48.527Z,98586.55
2018-04-17T05:12:53.292Z,98588.58
2018-04-17T05:13:57.963Z,98587.63
2018-04-17T05:15:02.838Z,98587.70
2018-04-17T05:16:07.685Z,98588.28
2018-04-17T05:17:12.391Z,98592.32
2018-04-17T05:18:16.863Z,98593.02
2018-04-17T05:19:21.374Z,98591.81
2018-04-17T05:20:26.731Z,98596.67
2018-04-17T05:21:31.634Z,98600.84
2018-04-17T05:22:36.292Z,98601.56
2018-04-17T05:23:40.815Z,98598.81
2018-04-17T05:24:45.320Z,98605.17
2018-04-17T05:25:49.872Z,98607.80
2018-04-17T05:26:55.066Z,98610.14
2018-04-17T05:28:00.191Z,98619.38
2018-04-17T05:29:04.793Z,98616.27
2018-04-17T05:30:09.304Z,98625.30
2018-04-17T05:31:13.872Z,98624.76
2018-04-17T05:32:18.652Z,98629.09
2018-04-17T05:33:23.406Z,98625.25
2018-04-17T05:34:28.569Z,98626.35
2018-04-17T05:35:33.308Z,98630.02
2018-04-17T05:36:38.054Z,98629.98
2018-04-17T05:37:42.745Z,98634.97
2018-04-17T05:38:47.395Z,98634.75
2018-04-17T05:39:52.076Z,98638.92
2018-04-17T05:40:57.069Z,98639.59
2018-04-17T05:42:01.766Z,98640.05
2018-04-17T05:43:06.548Z,98639.14
2018-04-17T05:44:11.274Z,98642.14
2018-04-17T05:45:15.995Z,98646.57
2018-04-17T05:46:20.756Z,98642.10
2018-04-17T05:47:25.804Z,98642.70
2018-04-17T05:48:30.548Z,98645.20
2018-04-17T05:49:35.225Z,98643.86
2018-04-17T05:50:39.936Z,98645.63
2018-04-17T05:51:44.635Z,98648.70
2018-04-17T05:52:49.298Z,98650.62
2018-04-17T05:53:54.557Z,98655.11
2018-04-17T05:54:59.274Z,98655.33
2018-04-17T05:56:04.053Z,98654.73
2018-04-17T05:57:08.773Z,98656.19
2018-04-17T05:58:13.469Z,98653.77
2018-04-17T05:59:18.224Z,98659.75
2018-04-17T06:00:23.254Z,98660.19
2018-04-17T06:01:28.036Z,98653.22
2018-04-17T06:02:32.676Z,98656.48
2018-04-17T06:03:37.317Z,98657.91
2018-04-17T06:04:42.043Z,98662.80
2018-04-17T06:05:46.993Z,98658.31
2018-04-17T06:06:52.118Z,98662.19
2018-04-17T06:07:56.700Z,98659.22
2018-04-17T06:09:01.460Z,98662.16
2018-04-17T06:10:06.079Z,98660.09
2018-04-17T06:11:10.718Z,98665.30
2018-04-17T06:12:15.423Z,98668.08
2018-04-17T06:13:20.620Z,98673.78
2018-04-17T06:14:25.266Z,98673.67
2018-04-17T06:15:29.843Z,98683.19
2018-04-17T06:16:34.567Z,98679.02
2018-04-17T06:17:39.284Z,98686.67
2018-04-17T06:18:43.882Z,98691.95
2018-04-17T06:19:48.857Z,98696.00
2018-04-17T06:20:53.533Z,98703.17
2018-04-17T06:21:58.144Z,98699.94
2018-04-17T06:23:02.783Z,98708.86
2018-04-17T06:24:07.580Z,98707.96
2018-04-17T06:25:12.261Z,98707.02
2018-04-17T06:26:17.258Z,98710.84
2018-04-17T06:27:21.804Z,98714.05
2018-04-17T06:28:26.310Z,98714.30
2018-04-17T06:29:31.086Z,98721.19
2018-04-17T06:30:36.120Z,98714.85
2018-04-17T06:31:40.680Z,98721.80
2018-04-17T06:32:46.443Z,98717.66
2018-04-17T06:33:50.935Z,98723.81
2018-04-17T06:34:55.493Z,98729.31
2018-04-17T06:36:00.823Z,98724.36
2018-04-17T06:37:05.415Z,98728.77
2018-04-17T06:38:10.038Z,98733.05
2018-04-17T06:39:14.662Z,98735.46
2018-04-17T06:40:19.238Z,98736.89
2018-04-17T06:41:23.853Z,98733.81
2018-04-17T06:42:28.502Z,98734.17
2018-04-17T06:43:33.131Z,98738.35
2018-04-17T06:44:38.211Z,98739.78
2018-04-17T06:45:42.969Z,98743.32
2018-04-17T06:46:47.883Z,98734.81
2018-04-17T06:47:52.987Z,98742.80
2018-04-17T06:48:57.666Z,98745.36
2018-04-17T06:50:02.412Z,98741.09
2018-04-17T06:51:07.455Z,98738.41
2018-04-17T06:52:12.062Z,98747.20
2018-04-17T06:53:16.650Z,98746.58
2018-04-17T06:54:21.227Z,98739.45
2018-04-17T06:55:25.816Z,98748.89
2018-04-17T06:56:30.591Z,98751.14
2018-04-17T06:57:35.513Z,98748.48
2018-04-17T06:58:40.102Z,98754.19
2018-04-17T06:59:44.558Z,98752.61
2018-04-17T07:00:48.988Z,98753.71
2018-04-17T07:01:53.466Z,98755.12
2018-04-17T07:02:58.061Z,98754.66
2018-04-17T07:04:03.001Z,98758.42
2018-04-17T07:05:07.602Z,98758.60
2018-04-17T07:06:12.367Z,98758.47
2018-04-17T07:07:17.095Z,98761.77
2018-04-17T07:08:21.632Z,98763.64
2018-04-17T07:09:27.379Z,98753.73
2018-04-17T07:10:32.521Z,98755.20
2018-04-17T07:11:37.360Z,98751.48
2018-04-17T07:12:42.408Z,98754.77
2018-04-17T07:13:47.123Z,98753.73
2018-04-17T07:14:52.482Z,98745.17
2018-04-17T07:15:57.327Z,98747.30
2018-04-17T07:17:02.923Z,98742.87
2018-04-17T07:18:07.672Z,98742.17
2018-04-17T07:19:12.442Z,98746.52
2018-04-17T07:20:17.109Z,98738.64
2018-04-17T07:21:21.792Z,98742.05
2018-04-17T07:22:26.360Z,98737.59
2018-04-17T07:23:31.511Z,98739.16
2018-04-17T07:24:36.353Z,98734.28
2018-04-17T07:25:41.216Z,98742.36
2018-04-17T07:26:46.148Z,98748.95
2018-04-17T07:27:51.461Z,98754.17
2018-04-17T07:28:56.701Z,98741.59
2018-04-17T07:30:02.157Z,98747.56
2018-04-17T07:31:07.003Z,98746.31
2018-04-17T07:32:12.196Z,98743.95
2018-04-17T07:33:17.552Z,98744.36
2018-04-17T07:34:22.826Z,98744.39
2018-04-17T07:35:29.238Z,98743.28
2018-04-17T07:36:35.010Z,98742.45
2018-04-17T07:37:42.203Z,98741.41
2018-04-17T07:38:46.956Z,98742.00
2018-04-17T07:39:51.570Z,98739.88
2018-04-17T07:40:56.178Z,98745.36
2018-04-17T07:42:00.799Z,98743.79
2018-04-17T07:43:05.891Z,98744.64
2018-04-17T07:44:12.219Z,98742.95
2018-04-17T07:45:18.295Z,98742.61
2018-04-17T07:46:23.850Z,98749.96
2018-04-17T07:47:30.455Z,98753.28
2018-04-17T07:48:51.110Z,98748.59
2018-04-17T07:49:55.745Z,98745.79
2018-04-17T07:51:00.388Z,98751.55
2018-04-17T07:52:05.248Z,98749.27
2018-04-17T07:53:10.471Z,98750.94
2018-04-17T07:54:16.454Z,98752.76
2018-04-17T07:55:22.371Z,98752.36
2018-04-17T07:56:28.791Z,98753.65
2018-04-17T07:57:34.442Z,98754.77
2018-04-17T07:58:39.664Z,98757.28
2018-04-17T07:59:45.187Z,98761.41
2018-04-17T08:00:51.300Z,98757.91
2018-04-17T08:01:56.236Z,98760.58
2018-04-17T08:03:01.681Z,98765.27
2018-04-17T08:04:08.067Z,98762.88
2018-04-17T08:05:12.947Z,98762.12
2018-04-17T08:06:18.694Z,98764.02
2018-04-17T08:07:25.317Z,98761.68
2018-04-17T08:08:30.069Z,98765.53
2018-04-17T08:09:35.935Z,98766.25
2018-04-17T08:10:41.540Z,98764.21
2018-04-17T08:11:46.406Z,98772.23
2018-04-17T08:12:51.902Z,98772.07
2018-04-17T08:13:57.021Z,98772.23
2018-04-17T08:15:03.090Z,98773.97
2018-04-17T08:16:09.130Z,98777.42
2018-04-17T08:17:15.801Z,98774.09
2018-04-17T08:18:21.033Z,98775.95
2018-04-17T08:19:26.935Z,98774.53
2018-04-17T08:20:32.988Z,98783.05
2018-04-17T08:21:38.215Z,98780.98
2018-04-17T08:22:43.250Z,98782.79
2018-04-17T08:23:49.186Z,98781.18
2018-04-17T08:24:55.272Z,98781.44
2018-04-17T08:26:00.228Z,98783.68
2018-04-17T08:27:05.988Z,98783.09
2018-04-17T08:28:11.193Z,98778.88
2018-04-17T08:29:16.231Z,98784.77
2018-04-17T08:30:21.599Z,98781.59
2018-04-17T08:31:27.479Z,98780.99
2018-04-17T08:32:32.531Z,98785.09
2018-04-17T08:33:38.185Z,98786.61
2018-04-17T08:34:43.898Z,98788.95
2018-04-17T08:35:49.037Z,98786.84
2018-04-17T08:36:54.915Z,98793.35
2018-04-17T08:38:00.122Z,98799.27
2018-04-17T08:39:05.348Z,98799.11
2018-04-17T08:40:11.632Z,98804.08
2018-04-17T08:41:17.440Z,98800.66
2018-04-17T08:42:22.671Z,98804.86
2018-04-17T08:43:28.800Z,98803.91
2018-04-17T08:44:34.917Z,98800.58
2018-04-17T08:45:41.795Z,98812.80
2018-04-17T08:46:46.757Z,98805.52
2018-04-17T08:47:51.748Z,98803.42
2018-04-17T08:48:57.841Z,98808.20
2018-04-17T08:50:03.336Z,98806.75
2018-04-17T08:51:09.786Z,98805.34
2018-04-17T08:52:15.563Z,98807.34
2018-04-17T08:53:22.786Z,98806.33
2018-04-17T08:54:29.773Z,98811.78
2018-04-17T08:55:36.047Z,98814.23
2018-04-17T08:56:42.763Z,98808.27
2018-04-17T08:57:47.979Z,98813.33
2018-04-17T08:58:52.836Z,98807.21
2018-04-17T08:59:57.571Z,98810.48
2018-04-17T09:01:02.358Z,98808.04
2018-04-17T09:02:07.059Z,98799.52
2018-04-17T09:03:12.105Z,98802.75
2018-04-17T09:04:16.756Z,98804.03
2018-04-17T09:05:21.408Z,98799.15
2018-04-17T09:06:26.207Z,98807.38
2018-04-17T09:07:30.651Z,98803.75
2018-04-17T09:08:35.310Z,98802.20
2018-04-17T09:09:40.373Z,98805.00
2018-04-17T09:10:44.994Z,98807.48
2018-04-17T09:11:49.730Z,98808.59
2018-04-17T09:12:54.432Z,98812.83
2018-04-17T09:13:59.040Z,98812.91
2018-04-17T09:15:03.742Z,98813.78
2018-04-17T09:16:08.544Z,98813.64
2018-04-17T09:17:13.348Z,98802.69
2018-04-17T09:18:18.198Z,98804.30
2018-04-17T09:19:25.304Z,98809.05
2018-04-17T09:20:30.176Z,98814.53
2018-04-17T09:21:35.303Z,98807.73
2018-04-17T09:22:39.868Z,98805.59
2018-04-17T09:23:44.619Z,98802.70
2018-04-17T09:24:49.288Z,98809.88
2018-04-17T09:25:54.031Z,98809.78
2018-04-17T09:26:59.036Z,98808.42
2018-04-17T09:28:04.658Z,98805.29
2018-04-17T09:29:09.599Z,98803.41
2018-04-17T09:30:15.018Z,98794.11
2018-04-17T09:31:20.386Z,98796.17
2018-04-17T09:32:25.211Z,98794.33
2018-04-17T09:33:29.978Z,98788.94
2018-04-17T09:34:36.623Z,98790.19
2018-04-17T09:35:41.505Z,98786.97
2018-04-17T09:36:46.693Z,98785.24
2018-04-17T09:37:51.377Z,98796.92
2018-04-17T09:38:56.971Z,98797.32
2018-04-17T09:40:01.626Z,98800.23
2018-04-17T09:41:06.727Z,98792.97
2018-04-17T09:42:11.778Z,98792.79
2018-04-17T09:43:18.625Z,98795.84
2018-04-17T09:44:24.037Z,98793.34
2018-04-17T09:45:29.086Z,98792.10
2018-04-17T09:46:34.847Z,98794.91
2018-04-17T09:47:41.111Z,98794.72
2018-04-17T09:48:46.575Z,98793.40
2018-04-17T09:49:52.188Z,98796.53
2018-04-17T09:50:58.732Z,98796.79
2018-04-17T09:52:04.478Z,98794.23
2018-04-17T09:53:10.391Z,98794.78
2018-04-17T09:54:15.706Z,98796.52
2018-04-17T09:55:21.299Z,98793.42
2018-04-17T09:56:26.125Z,98798.45
2018-04-17T09:57:30.764Z,98801.22
2018-04-17T09:58:38.890Z,98801.34
2018-04-17T09:59:43.642Z,98793.81
2018-04-17T10:00:54.778Z,98787.42
2018-04-17T10:02:00.599Z,98797.39
2018-04-17T10:03:05.520Z,98800.89
2018-04-17T10:04:10.298Z,98795.63
2018-04-17T10:05:15.019Z,98792.25
2018-04-17T10:06:19.745Z,98794.13
2018-04-17T10:07:25.927Z,98788.39
2018-04-17T10:08:30.532Z,98790.59
2018-04-17T10:09:36.006Z,98786.63
2018-04-17T10:10:40.633Z,98796.13
2018-04-17T10:11:46.715Z,98798.61
2018-04-17T10:12:51.769Z,98798.58
2018-04-17T10:13:56.335Z,98798.84
2018-04-17T10:15:03.267Z,98802.82
2018-04-17T10:16:08.633Z,98801.36
2018-04-17T10:17:13.513Z,98796.13
2018-04-17T10:18:18.282Z,98800.38
2018-04-17T10:19:24.447Z,98783.86
2018-04-17T10:20:29.171Z,98787.73
2018-04-17T10:21:33.798Z,98788.30
2018-04-17T10:22:38.471Z,98786.47
2018-04-17T10:23:43.289Z,98789.92
2018-04-17T10:24:47.905Z,98784.38
2018-04-17T10:25:52.889Z,98784.02
2018-04-17T10:26:57.475Z,98782.45
2018-04-17T10:28:02.009Z,98783.86
2018-04-17T10:29:06.526Z,98779.55
2018-04-17T10:30:11.245Z,98787.06
2018-04-17T10:31:16.107Z,98786.32
2018-04-17T10:32:21.386Z,98784.28
2018-04-17T10:33:26.092Z,98781.76
2018-04-17T10:34:31.134Z,98781.84
2018-04-17T10:35:35.807Z,98775.63
2018-04-17T10:36:40.837Z,98770.58
2018-04-17T10:37:47.190Z,98778.65
2018-04-17T10:38:53.294Z,98772.16
2018-04-17T10:39:59.071Z,98778.33
2018-04-17T10:41:04.596Z,98776.20
2018-04-17T10:42:09.403Z,98774.41
2018-04-17T10:43:14.036Z,98772.41
2018-04-17T10:44:18.775Z,98768.34
2018-04-17T10:45:24.700Z,98766.08
2018-04-17T10:46:29.584Z,98765.73
2018-04-17T10:47:34.857Z,98759.53
2018-04-17T10:48:40.444Z,98768.34
2018-04-17T10:49:45.210Z,98767.78
2018-04-17T10:50:51.599Z,98762.37
2018-04-17T10:51:56.353Z,98766.47
2018-04-17T10:53:02.665Z,98766.97
2018-04-17T10:54:08.540Z,98772.99
2018-04-17T10:55:13.422Z,98765.25
2018-04-17T10:56:19.752Z,98765.99
2018-04-17T10:57:25.152Z,98762.52
2018-04-17T10:58:31.508Z,98764.20
2018-04-17T10:59:36.779Z,98758.59
2018-04-17T11:00:42.603Z,98760.53
2018-04-17T11:01:48.495Z,98759.97
2018-04-17T11:02:53.158Z,98756.02
2018-04-17T11:03:58.846Z,98760.18
2018-04-17T11:05:03.599Z,98762.54
2018-04-17T11:06:08.834Z,98752.92
2018-04-17T11:07:14.600Z,98759.05
2018-04-17T11:08:19.856Z,98759.19
2018-04-17T11:09:24.524Z,98760.34
2018-04-17T11:10:29.206Z,98758.33
2018-04-17T11:11:33.892Z,98750.66
2018-04-17T11:12:39.070Z,98757.72
2018-04-17T11:13:44.351Z,98760.50
2018-04-17T11:14:49.406Z,98759.06
2018-04-17T11:15:53.934Z,98758.02
2018-04-17T11:16:58.579Z,98761.38
2018-04-17T11:18:04.690Z,98755.97
2018-04-17T11:19:10.282Z,98759.67
2018-04-17T11:20:14.902Z,98753.74
2018-04-17T11:21:20.444Z,98763.16
2018-04-17T11:22:25.071Z,98761.70
2018-04-17T11:23:29.902Z,98755.84
2018-04-17T11:24:35.583Z,98757.84
2018-04-17T11:25:40.377Z,98761.52
2018-04-17T11:26:45.041Z,98757.27
2018-04-17T11:27:50.050Z,98757.48
2018-04-17T11:28:55.472Z,98752.15
2018-04-17T11:30:00.159Z,98751.44
2018-04-17T11:31:11.763Z,98751.73
2018-04-17T11:32:16.494Z,98748.80
2018-04-17T11:33:21.162Z,98753.08
2018-04-17T11:34:27.572Z,98755.05
2018-04-17T11:35:32.456Z,98761.49
2018-04-17T11:36:37.400Z,98752.95
2018-04-17T11:37:42.855Z,98756.69
2018-04-17T11:38:48.358Z,98751.77
2018-04-17T11:39:53.719Z,98753.33
2018-04-17T11:40:58.965Z,98746.94
2018-04-17T11:42:04.210Z,98754.07
2018-04-17T11:43:09.000Z,98753.73
2018-04-17T11:44:13.717Z,98753.95
2018-04-17T11:45:18.365Z,98753.13
2018-04-17T11:46:24.149Z,98751.92
2018-04-17T11:47:29.677Z,98754.23
2018-04-17T11:48:34.403Z,98750.52
2018-04-17T11:49:40.576Z,98749.41
2018-04-17T11:50:45.808Z,98746.00
2018-04-17T11:51:50.782Z,98749.64
2018-04-17T11:52:55.485Z,98755.29
2018-04-17T11:54:01.351Z,98755.70
2018-04-17T11:55:06.002Z,98753.28
2018-04-17T11:56:10.701Z,98754.08
2018-04-17T11:57:15.732Z,98754.83
2018-04-17T11:58:21.047Z,98750.75
2018-04-17T11:59:25.905Z,98746.80
2018-04-17T12:00:32.011Z,98755.44
2018-04-17T12:01:37.299Z,98753.22
2018-04-17T12:02:42.966Z,98752.76
2018-04-17T12:03:47.754Z,98757.38
2018-04-17T12:04:52.781Z,98756.70
2018-04-17T12:05:57.489Z,98752.92
2018-04-17T12:07:02.612Z,98755.23
2018-04-17T12:08:07.544Z,98754.34
2018-04-17T12:09:13.165Z,98750.72
2018-04-17T12:10:18.308Z,98747.91
2018-04-17T12:11:24.859Z,98751.57
2018-04-17T12:12:30.458Z,98754.80
2018-04-17T12:13:35.592Z,98754.53
2018-04-17T12:14:41.215Z,98755.42
2018-04-17T12:15:46.243Z,98751.05
2018-04-17T12:16:51.862Z,98748.78
2018-04-17T12:17:57.618Z,98748.47
2018-04-17T12:19:04.178Z,98747.75
2018-04-17T12:20:09.713Z,98757.87
2018-04-17T12:21:15.897Z,98762.25
2018-04-17T12:22:21.569Z,98765.73
2018-04-17T12:23:27.154Z,98757.25
2018-04-17T12:24:32.879Z,98755.89
2018-04-17T12:25:37.903Z,98756.71
2018-04-17T12:26:44.165Z,98753.08
2018-04-17T12:27:49.798Z,98754.62
2018-04-17T12:28:55.367Z,98743.86
2018-04-17T12:30:00.812Z,98759.00
2018-04-17T12:31:05.784Z,98755.06
2018-04-17T12:32:10.716Z,98755.08
2018-04-17T12:33:16.028Z,98749.16
2018-04-17T12:34:21.377Z,98745.73
2018-04-17T12:35:28.059Z,98748.61
2018-04-17T12:36:32.840Z,98757.73
2018-04-17T12:37:37.735Z,98743.98
2018-04-17T12:38:46.922Z,98750.86
2018-04-17T12:39:52.751Z,98741.76
2018-04-17T12:40:57.818Z,98749.64
2018-04-17T12:42:02.422Z,98746.58
2018-04-17T12:43:07.345Z,98755.47
2018-04-17T12:44:12.255Z,98746.66
2018-04-17T12:45:17.492Z,98751.77
2018-04-17T12:46:22.056Z,98752.08
2018-04-17T12:47:26.817Z,98752.42
2018-04-17T12:48:31.485Z,98748.80